Map

Track Data

SID SEASON NUMBER BASIN SUBBASIN NAME ISO_TIME NATURE LAT LON WMO_WIND WMO_PRES WMO_AGENCY TRACK_TYPE DIST2LAND LANDFALL IFLAG USA_AGENCY USA_ATCF_ID USA_LAT USA_LON USA_RECORD USA_STATUS USA_WIND USA_PRES USA_SSHS USA_R34_NE USA_R34_SE USA_R34_SW USA_R34_NW USA_R50_NE USA_R50_SE USA_R50_SW USA_R50_NW USA_R64_NE USA_R64_SE USA_R64_SW USA_R64_NW USA_POCI USA_ROCI USA_RMW USA_EYE TOKYO_LAT TOKYO_LON TOKYO_GRADE TOKYO_WIND TOKYO_PRES TOKYO_R50_DIR TOKYO_R50_LONG TOKYO_R50_SHORT TOKYO_R30_DIR TOKYO_R30_LONG TOKYO_R30_SHORT TOKYO_LAND CMA_LAT CMA_LON CMA_CAT CMA_WIND CMA_PRES HKO_LAT HKO_LON HKO_CAT HKO_WIND HKO_PRES NEWDELHI_LAT NEWDELHI_LON NEWDELHI_GRADE NEWDELHI_WIND NEWDELHI_PRES NEWDELHI_CI NEWDELHI_DP NEWDELHI_POCI REUNION_LAT REUNION_LON REUNION_TYPE REUNION_WIND REUNION_PRES REUNION_TNUM REUNION_CI REUNION_RMW REUNION_R34_NE REUNION_R34_SE REUNION_R34_SW REUNION_R34_NW REUNION_R50_NE REUNION_R50_SE REUNION_R50_SW REUNION_R50_NW REUNION_R64_NE REUNION_R64_SE REUNION_R64_SW REUNION_R64_NW BOM_LAT BOM_LON BOM_TYPE BOM_WIND BOM_PRES BOM_TNUM BOM_CI BOM_RMW BOM_R34_NE BOM_R34_SE BOM_R34_SW BOM_R34_NW BOM_R50_NE BOM_R50_SE BOM_R50_SW BOM_R50_NW BOM_R64_NE BOM_R64_SE BOM_R64_SW BOM_R64_NW BOM_ROCI BOM_POCI BOM_EYE BOM_POS_METHOD BOM_PRES_METHOD NADI_LAT NADI_LON NADI_CAT NADI_WIND NADI_PRES WELLINGTON_LAT WELLINGTON_LON WELLINGTON_WIND WELLINGTON_PRES DS824_LAT DS824_LON DS824_STAGE DS824_WIND DS824_PRES TD9636_LAT TD9636_LON TD9636_STAGE TD9636_WIND TD9636_PRES TD9635_LAT TD9635_LON TD9635_WIND TD9635_PRES TD9635_ROCI NEUMANN_LAT NEUMANN_LON NEUMANN_CLASS NEUMANN_WIND NEUMANN_PRES MLC_LAT MLC_LON MLC_CLASS MLC_WIND MLC_PRES USA_GUST BOM_GUST BOM_GUST_PER REUNION_GUST REUNION_GUST_PER USA_SEAHGT USA_SEARAD_NE USA_SEARAD_SE USA_SEARAD_SW USA_SEARAD_NW STORM_SPEED STORM_DIR
1938017S20160 1938 8 SP MM NOT_NAMED 1938-01-16 23:00:00 NR -19.6500 160.450 bom main 374 371 ______O___O___ -1 -19.6000 160.600 -19.7000 160.300 7 7 215
1938017S20160 1938 8 SP MM NOT_NAMED 1938-01-17 00:00:00 TS -19.7471 160.375 main 382 380 ______P__OP___ -1 -19.6910 160.498 -19.7000 160.500 TC -19.8268 160.190 7 8 222
1938017S20160 1938 8 SP MM NOT_NAMED 1938-01-17 03:00:00 TS -20.0590 160.059 main 407 407 ______P__PP___ -1 -19.9652 160.187 -19.9786 160.171 TC -20.2063 159.856 7 9 224
1938017S20160 1938 8 SP EA NOT_NAMED 1938-01-17 06:00:00 TS -20.3717 159.728 main 448 448 ______P__PP___ -1 -20.2441 159.865 -20.2600 159.834 TC -20.5830 159.513 7 9 226
1938017S20160 1938 8 SP EA NOT_NAMED 1938-01-17 09:00:00 TS -20.6782 159.385 main 481 481 ______P__PP___ -1 -20.5316 159.522 -20.5478 159.481 TC -20.9552 159.152 7 9 227
1938017S20160 1938 8 SP EA NOT_NAMED 1938-01-17 11:00:00 TS -20.8916 159.137 main 514 514 ______P__PO___ -1 -20.7300 159.278 -20.7449 159.233 TC -21.2000 158.900 7 10 228
1938017S20160 1938 8 SP EA NOT_NAMED 1938-01-17 12:00:00 TS -20.9994 159.008 main 526 526 ______P__PP___ -1 -20.8317 159.150 -20.8454 159.104 TC -21.3212 158.769 7 10 229
1938017S20160 1938 8 SP EA NOT_NAMED 1938-01-17 15:00:00 TS -21.3280 158.600 main 572 572 ______P__PP___ -1 -21.1481 158.741 -21.1561 158.696 TC -21.6798 158.362 7 10 230
1938017S20160 1938 8 SP EA NOT_NAMED 1938-01-17 18:00:00 TS -21.6663 158.156 main 608 547 ______P__PP___ -1 -21.4847 158.286 -21.4833 158.248 TC -22.0310 157.936 7 11 231
1938017S20160 1938 8 SP EA NOT_NAMED 1938-01-17 21:00:00 TS -22.0167 157.675 main 547 508 ______P__PP___ -1 -21.8449 157.776 -21.8303 157.752 TC -22.3748 157.497 7 12 232
1938017S20160 1938 8 SP EA NOT_NAMED 1938-01-17 23:00:00 TS -22.2580 157.330 bom main 494 479 ______O__PO___ -1 -22.1000 157.400 -22.0740 157.391 TC -22.6000 157.200 7 12 233
1938017S20160 1938 8 SP EA NOT_NAMED 1938-01-18 00:00:00 TS -22.3820 157.155 main 479 409 ______P__OP___ -1 -22.2323 157.201 -22.2000 157.200 TC -22.7138 157.063 7 13 233
1938017S20160 1938 8 SP EA NOT_NAMED 1938-01-18 03:00:00 TS -22.7622 156.602 main 403 341 ______P__PP___ -1 -22.6430 156.566 -22.5926 156.589 TC -23.0508 156.650 7 13 234
1938017S20160 1938 8 SP EA NOT_NAMED 1938-01-18 06:00:00 TS -23.1462 156.018 main 333 257 ______P__PP___ -1 -23.0625 155.895 -22.9967 155.939 TC -23.3793 156.219 7 13 235
1938017S20160 1938 8 SP EA NOT_NAMED 1938-01-18 09:00:00 TS -23.5234 155.413 main 257 211 ______P__PP___ -1 -23.4757 155.217 -23.3982 155.275 TC -23.6964 155.747 7 13 236
1938017S20160 1938 8 SP EA NOT_NAMED 1938-01-18 11:00:00 TS -23.7660 155.004 main 205 182 ______P__PO___ -1 -23.7403 154.775 -23.6575 154.838 TC -23.9000 155.400 7 13 237
1938017S20160 1938 8 SP EA NOT_NAMED 1938-01-18 12:00:00 TS -23.8845 154.794 main 182 113 ______P__PP___ -1 -23.8678 154.560 -23.7832 154.624 TC -24.0025 155.198 7 13 239
1938017S20160 1938 8 SP EA NOT_NAMED 1938-01-18 15:00:00 TS -24.2212 154.169 main 113 45 ______P__PP___ -1 -24.2247 153.952 -24.1386 154.013 TC -24.3004 154.543 7 13 240
1938017S20160 1938 8 SP EA NOT_NAMED 1938-01-18 18:00:00 TS -24.5215 153.584 main 45 0 ______P__PP___ -1 -24.5324 153.424 -24.4515 153.470 TC -24.5807 153.857 7 11 241
1938017S20160 1938 8 SP EA NOT_NAMED 1938-01-18 21:00:00 TS -24.7757 153.075 main 0 0 ______P__PP___ -1 -24.7777 153.004 -24.7094 153.023 TC -24.8400 153.198 7 10 241
1938017S20160 1938 8 SP EA NOT_NAMED 1938-01-18 23:00:00 TS -24.9149 152.797 992 bom main 30 20 ______O__PO___ -1 -24.9000 152.800 992 4 -24.8447 152.792 TC -25.0000 152.800 7 8 241
1938017S20160 1938 8 SP EA NOT_NAMED 1938-01-19 00:00:00 TS -24.9722 152.684 main 20 0 ______P__OP___ -1 -24.9453 152.729 -24.9000 152.700 TC 45 992 -25.0713 152.623 7 6 241
1938017S20160 1938 8 SP EA NOT_NAMED 1938-01-19 03:00:00 TS -25.1103 152.414 main 0 0 ______P__PP___ -1 -25.0469 152.578 -25.0166 152.520 TC -25.2674 152.143 7 5 240
1938017S20160 1938 8 SP EA NOT_NAMED 1938-01-19 05:00:00 TS -25.1883 152.267 bom main 0 0 ______O__PP___ -1 -25.1000 152.500 -25.0737 152.438 TC -25.3913 151.863 7 5 239
1938017S20160 1938 8 SP EA NOT_NAMED 1938-01-19 06:00:00 TS -25.2281 152.195 main 0 0 ______P__OP___ -1 -25.1307 152.450 -25.1000 152.400 TC -25.4536 151.735 7 5 237
1938017S20160 1938 8 SP EA NOT_NAMED 1938-01-19 09:00:00 TS -25.3525 151.983 main 0 0 ______P__PP___ -1 -25.2178 152.298 -25.1884 152.257 TC -25.6513 151.394 7 4 236
1938017S20160 1938 8 SP EA NOT_NAMED 1938-01-19 11:00:00 TS -25.4387 151.854 main 0 0 ______P__PO___ -1 -25.2727 152.197 -25.2433 152.164 TC -25.8000 151.200 7 4 234
1938017S20160 1938 8 SP EA NOT_NAMED 1938-01-19 12:00:00 TS -25.4832 151.783 main 0 0 ______P__PP___ -1 -25.2995 152.146 -25.2699 152.119 TC -25.8803 151.083 7 5 233
1938017S20160 1938 8 SP EA NOT_NAMED 1938-01-19 15:00:00 TS -25.6225 151.583 main 0 0 ______P__PP___ -1 -25.3787 151.995 -25.3483 151.985 TC -26.1407 150.768 7 4 229
1938017S20160 1938 8 SP EA NOT_NAMED 1938-01-19 18:00:00 TS -25.7728 151.410 main 0 0 ______P__PP___ -1 -25.4583 151.845 -25.4270 151.854 TC -26.4330 150.531 7 4 221
1938017S20160 1938 8 SP EA NOT_NAMED 1938-01-19 21:00:00 TS -25.9372 151.276 main 0 0 ______P__PP___ -1 -25.5413 151.697 -25.5097 151.726 TC -26.7606 150.405 7 4 212
1938017S20160 1938 8 SP EA NOT_NAMED 1938-01-19 23:00:00 TS -26.0563 151.214 bom main 0 0 ______O__PO___ -1 -25.6000 151.600 -25.5688 151.642 TC -27.0000 150.400 7 4 204
1938017S20160 1938 8 SP EA NOT_NAMED 1938-01-20 00:00:00 TS -26.1179 151.184 main 0 0 ______P__OP___ -1 -25.6202 151.533 -25.6000 151.600 TC -27.1263 150.424 7 4 203
1938017S20160 1938 8 SP EA NOT_NAMED 1938-01-20 03:00:00 TS -26.3024 151.102 main 0 0 ______P__PP___ -1 -25.6769 151.321 -25.6654 151.407 TC -27.5282 150.595 7 4 197
1938017S20160 1938 8 SP EA NOT_NAMED 1938-01-20 06:00:00 TS -26.4932 151.056 main 0 0 ______P__PP___ -1 -25.7345 151.105 -25.7312 151.205 TC -27.9564 150.881 7 4 189
1938017S20160 1938 8 SP EA NOT_NAMED 1938-01-20 09:00:00 TS -26.6835 151.044 main 0 0 ______P__PP___ -1 -25.8016 150.899 -25.8057 151.007 TC -28.4004 151.240 7 2 197
1938017S20160 1938 8 SP EA NOT_NAMED 1938-01-20 11:00:00 TS -26.6346 151.012 main 0 0 ______P__PO___ -1 -25.8559 150.774 -25.8642 150.884 TC -28.7000 151.500 7 5 338
1938017S20160 1938 8 SP EA NOT_NAMED 1938-01-20 12:00:00 TS -26.4727 150.941 main 0 0 ______P__P____ -1 -25.8870 150.718 -25.8971 150.828 TC 7 5 325
1938017S20160 1938 8 SP EA NOT_NAMED 1938-01-20 15:00:00 TS -26.3436 150.782 main 0 0 ______P__P____ -1 -25.9996 150.576 -26.0138 150.683 TC 7 5 311
1938017S20160 1938 8 SP EA NOT_NAMED 1938-01-20 18:00:00 TS -26.1562 150.537 main 0 0 ______P__P____ -1 -26.1482 150.487 -26.1642 150.587 TC 7 2 269
1938017S20160 1938 8 SP EA NOT_NAMED 1938-01-20 21:00:00 TS -26.3493 150.511 main 0 0 ______P__P____ -1 -26.3417 150.468 -26.3568 150.554 TC 7 4 0
1938017S20160 1938 8 SP EA NOT_NAMED 1938-01-20 23:00:00 TS -26.5064 150.538 bom main 0 0 ______O__P____ -1 -26.5000 150.500 -26.5128 150.575 TC 5 173
1938017S20160 1938 8 SP EA NOT_NAMED 1938-01-21 00:00:00 TS -26.5944 150.561 main 0 0 ______P__O____ -1 -26.5888 150.523 -26.6000 150.600 TC 6 163
1938017S20160 1938 8 SP EA NOT_NAMED 1938-01-21 03:00:00 TS -26.8950 150.671 main 0 0 ______P__P____ -1 -26.8895 150.639 -26.9004 150.703 TC 7 158
1938017S20160 1938 8 SP EA NOT_NAMED 1938-01-21 06:00:00 TS -27.2435 150.852 main 0 0 ______P__P____ -1 -27.2370 150.826 -27.2501 150.878 TC 8 152
1938017S20160 1938 8 SP EA NOT_NAMED 1938-01-21 09:00:00 TS -27.6338 151.104 main 0 0 ______P__P____ -1 -27.6253 151.085 -27.6422 151.124 TC 9 149
1938017S20160 1938 8 SP EA NOT_NAMED 1938-01-21 11:00:00 TS -27.9139 151.311 main 0 0 ______P__P____ -1 -27.9039 151.295 -27.9239 151.327 TC 10 146
1938017S20160 1938 8 SP EA NOT_NAMED 1938-01-21 12:00:00 TS -28.0593 151.427 main 0 0 ______P__P____ -1 -28.0485 151.412 -28.0701 151.441 TC 11 143
1938017S20160 1938 8 SP EA NOT_NAMED 1938-01-21 15:00:00 TS -28.5136 151.818 main 0 0 ______P__P____ -1 -28.5004 151.809 -28.5267 151.827 TC 12 141
1938017S20160 1938 8 SP EA NOT_NAMED 1938-01-21 18:00:00 TS -28.9902 152.278 main 0 0 ______P__P____ -1 -28.9751 152.274 -29.0053 152.282 TC 13 138
1938017S20160 1938 8 SP EA NOT_NAMED 1938-01-21 21:00:00 TS -29.4825 152.807 main 0 0 ______P__P____ -1 -29.4664 152.807 -29.4987 152.807 TC 14 136
1938017S20160 1938 8 SP EA NOT_NAMED 1938-01-21 23:00:00 TS -29.8162 153.197 bom main 0 0 ______O__P____ -1 -29.8000 153.200 -29.8325 153.195 TC 14 134
1938017S20160 1938 8 SP EA NOT_NAMED 1938-01-22 00:00:00 TS -29.9840 153.404 main 14 14 ______P__O____ -1 -29.9680 153.407 -30.0000 153.400 TC 15 132
1938017S20160 1938 8 SP EA NOT_NAMED 1938-01-22 03:00:00 TS -30.4890 154.064 main 97 97 ______P__P____ -1 -30.4750 154.070 -30.5030 154.059 TC 16 131
1938017S20160 1938 8 SP EA NOT_NAMED 1938-01-22 06:00:00 TS -30.9947 154.777 main 162 162 ______P__P____ -1 -30.9844 154.781 -31.0050 154.772 TC 16 129
1938017S20160 1938 8 SP EA NOT_NAMED 1938-01-22 09:00:00 TS -31.4990 155.527 main 231 231 ______P__P____ -1 -31.4936 155.529 -31.5044 155.524 TC 16 128
1938017S20160 1938 8 SP EA NOT_NAMED 1938-01-22 12:00:00 TS -32.0000 156.300 bom main 318 ______O__O____ -1 -32.0000 156.300 -32.0000 156.300 TC 17 127

Digital Typhoon Data and Search

About IBTrACS Database

This database is a web-friendly format of International Best Track Archive for Climate Stewardship (IBTrACS), a global best track data archive curated by NOAA dating back to 1842.

Updated: 2021-10-08